Time;durP1;ratioP1;P1;durP2;ratioP2;P2;SDS_P1;SDS_P2;PMS_P1;PMS_P2;Temp;Humidity;BMP_temperature;BMP_pressure;BME280_temperature;BME280_humidity;BME280_pressure;Samples;Min_cycle;Max_cycle;Signal;HPM_P1;HPM_P2
2023/03/11 00:01:52;;;;;;;1.50;0.80;;;;;7.70;100456.00;;;;5049835;28;20204;-75
2023/03/11 00:04:19;;;;;;;1.63;0.68;;;;;7.70;100457.00;;;;5048511;28;20314;-75
2023/03/11 00:06:46;;;;;;;0.98;0.50;;;;;7.70;100458.00;;;;5045746;28;20223;-75
2023/03/11 00:09:14;;;;;;;0.90;0.60;;;;;7.70;100469.00;;;;5047734;28;20203;-75
2023/03/11 00:11:41;;;;;;;2.05;0.73;;;;;7.60;100461.00;;;;5042259;28;21282;-75
2023/03/11 00:14:08;;;;;;;1.52;0.38;;;;;7.60;100463.00;;;;5030072;28;20548;-75
2023/03/11 00:16:37;;;;;;;0.70;0.55;;;;;7.60;100464.00;;;;5048323;28;20207;-75
2023/03/11 00:19:04;;;;;;;2.20;0.73;;;;;7.60;100469.00;;;;5048695;28;20225;-75
2023/03/11 00:21:32;;;;;;;1.40;0.55;;;;;7.50;100473.00;;;;5050338;28;20673;-75
2023/03/11 00:24:02;;;;;;;0.65;0.32;;;;;7.50;100474.00;;;;5048958;28;20963;-75
2023/03/11 00:26:29;;;;;;;1.98;0.43;;;;;7.50;100469.00;;;;5047115;28;20208;-75
2023/03/11 00:28:57;;;;;;;1.45;0.73;;;;;7.50;100476.00;;;;5038570;28;20211;-75
2023/03/11 00:31:25;;;;;;;2.30;0.55;;;;;7.50;100484.00;;;;5030053;28;20204;-75
2023/03/11 00:33:56;;;;;;;1.85;0.40;;;;;7.40;100481.00;;;;5043182;28;20202;-76
2023/03/11 00:36:31;;;;;;;1.80;0.47;;;;;7.40;100486.00;;;;5046782;28;20199;-75
2023/03/11 00:38:58;;;;;;;3.05;0.60;;;;;7.40;100491.00;;;;5046884;28;20199;-75
2023/03/11 00:41:26;;;;;;;1.73;0.45;;;;;7.50;100500.00;;;;5049685;28;20211;-75
2023/03/11 00:43:53;;;;;;;1.88;0.40;;;;;7.50;100496.00;;;;5049706;28;20202;-76
2023/03/11 00:46:20;;;;;;;3.42;0.75;;;;;7.50;100502.00;;;;5045355;28;20206;-75
2023/03/11 00:48:49;;;;;;;2.40;0.82;;;;;7.50;100511.00;;;;5048848;28;20253;-75
2023/03/11 00:51:18;;;;;;;2.20;0.70;;;;;7.50;100519.00;;;;5049802;28;20203;-75
2023/03/11 00:53:46;;;;;;;2.13;0.50;;;;;7.50;100512.00;;;;5049086;28;20194;-75
2023/03/11 00:56:15;;;;;;;4.55;0.60;;;;;7.60;100516.00;;;;5047749;28;20211;-75
2023/03/11 00:58:45;;;;;;;2.05;0.52;;;;;7.60;100520.00;;;;5047966;28;20210;-75
2023/03/11 01:01:15;;;;;;;0.40;0.30;;;;;7.60;100515.00;;;;5047253;28;20245;-75
2023/03/11 01:03:43;;;;;;;1.60;0.40;;;;;7.60;100519.00;;;;5047402;28;20211;-75
2023/03/11 01:06:11;;;;;;;1.30;0.40;;;;;7.60;100521.00;;;;5049091;28;20223;-75
2023/03/11 01:08:41;;;;;;;1.42;0.50;;;;;7.60;100530.00;;;;5048074;28;20826;-75
2023/03/11 01:11:09;;;;;;;1.63;0.60;;;;;7.60;100526.00;;;;5046241;28;20201;-76
2023/03/11 01:13:36;;;;;;;0.95;0.38;;;;;7.60;100532.00;;;;5049009;28;20242;-75
2023/03/11 01:16:04;;;;;;;2.38;0.65;;;;;7.60;100531.00;;;;5048173;28;20199;-75
2023/03/11 01:18:31;;;;;;;2.90;0.57;;;;;7.60;100535.00;;;;5044539;28;20211;-75
2023/03/11 01:20:59;;;;;;;0.70;0.40;;;;;7.60;100546.00;;;;5042250;28;20197;-75
2023/03/11 01:23:26;;;;;;;2.92;0.40;;;;;7.60;100544.00;;;;5049086;28;20207;-75
2023/03/11 01:25:55;;;;;;;1.70;0.63;;;;;7.60;100545.00;;;;5048217;28;20698;-75
2023/03/11 01:28:22;;;;;;;3.95;0.50;;;;;7.60;100548.00;;;;5045044;28;20207;-75
2023/03/11 01:30:49;;;;;;;1.15;0.28;;;;;7.60;100553.00;;;;5043585;28;20196;-75
2023/03/11 01:33:19;;;;;;;2.05;0.77;;;;;7.50;100551.00;;;;5045185;28;20203;-75
2023/03/11 01:35:48;;;;;;;0.82;0.30;;;;;7.50;100550.00;;;;5042762;28;20203;-75
2023/03/11 01:38:16;;;;;;;1.80;0.68;;;;;7.60;100556.00;;;;5038720;28;20277;-75
2023/03/11 01:40:44;;;;;;;2.30;0.65;;;;;7.60;100552.00;;;;5044735;28;20200;-75
2023/03/11 01:43:53;;;;;;;3.40;0.65;;;;;7.50;100549.00;;;;5047287;28;20203;-75
2023/03/11 01:46:23;;;;;;;1.15;0.43;;;;;7.50;100565.00;;;;5048825;28;20700;-75
2023/03/11 01:48:53;;;;;;;2.40;0.60;;;;;7.60;100555.00;;;;5044304;28;20204;-76
2023/03/11 01:51:25;;;;;;;0.80;0.30;;;;;7.50;100552.00;;;;5046019;28;20191;-75
2023/03/11 01:53:54;;;;;;;1.75;0.63;;;;;7.60;100559.00;;;;5047400;28;20207;-75
2023/03/11 01:56:23;;;;;;;3.45;0.47;;;;;7.60;100560.00;;;;5048000;28;20204;-75
2023/03/11 01:58:53;;;;;;;1.88;0.60;;;;;7.60;100553.00;;;;5045453;28;20199;-75
2023/03/11 02:01:22;;;;;;;1.73;0.60;;;;;7.60;100563.00;;;;5045345;28;20217;-75
2023/03/11 02:03:50;;;;;;;2.00;0.55;;;;;7.60;100565.00;;;;5047569;28;20200;-75
2023/03/11 02:06:20;;;;;;;0.90;0.30;;;;;7.50;100568.00;;;;5048020;28;20238;-76
2023/03/11 02:08:49;;;;;;;0.40;0.10;;;;;7.60;100567.00;;;;5047704;28;20202;-75
2023/03/11 02:11:18;;;;;;;0.90;0.30;;;;;7.50;100552.00;;;;5036577;28;20208;-75
2023/03/11 02:13:47;;;;;;;1.58;0.38;;;;;7.50;100551.00;;;;5047765;28;20646;-76
2023/03/11 02:16:16;;;;;;;5.68;0.75;;;;;7.50;100561.00;;;;5048480;28;20191;-75
2023/03/11 02:18:44;;;;;;;2.30;0.55;;;;;7.50;100560.00;;;;5045988;28;20200;-76
2023/03/11 02:21:23;;;;;;;2.65;0.65;;;;;7.40;100566.00;;;;5046866;28;20204;-76
2023/03/11 02:23:59;;;;;;;1.52;0.35;;;;;7.40;100571.00;;;;5030544;28;20215;-75
2023/03/11 02:26:33;;;;;;;0.65;0.20;;;;;7.40;100574.00;;;;5036263;28;20223;-76
2023/03/11 02:29:05;;;;;;;0.70;0.30;;;;;7.30;100579.00;;;;5042385;28;20214;-75
2023/03/11 02:31:33;;;;;;;1.05;0.30;;;;;7.30;100587.00;;;;5045973;28;20204;-76
2023/03/11 02:34:03;;;;;;;1.48;0.40;;;;;7.30;100581.00;;;;5046456;28;20203;-75
2023/03/11 02:36:34;;;;;;;0.93;0.45;;;;;7.30;100586.00;;;;5045421;28;20658;-76
2023/03/11 02:39:02;;;;;;;1.90;0.50;;;;;7.30;100576.00;;;;5048844;28;20206;-75
2023/03/11 02:41:31;;;;;;;0.82;0.22;;;;;7.30;100571.00;;;;5050074;28;20207;-76
2023/03/11 02:44:01;;;;;;;1.50;0.40;;;;;7.20;100576.00;;;;5049915;28;20192;-76
2023/03/11 02:46:28;;;;;;;2.55;0.50;;;;;7.20;100570.00;;;;5032208;28;20220;-75
2023/03/11 02:48:57;;;;;;;3.55;0.90;;;;;7.20;100572.00;;;;5045466;28;20196;-76
2023/03/11 02:51:24;;;;;;;0.65;0.28;;;;;7.20;100576.00;;;;5049261;28;20196;-75
2023/03/11 02:53:56;;;;;;;2.53;0.65;;;;;7.20;100574.00;;;;5051681;28;20210;-76
2023/03/11 02:56:24;;;;;;;0.68;0.38;;;;;7.20;100571.00;;;;5050768;28;20586;-75
2023/03/11 02:58:51;;;;;;;1.00;0.30;;;;;7.10;100566.00;;;;5049582;28;20196;-75
2023/03/11 03:01:20;;;;;;;1.08;0.40;;;;;7.10;100573.00;;;;5047555;28;20204;-75
2023/03/11 03:03:47;;;;;;;1.95;0.38;;;;;7.10;100575.00;;;;5051646;28;20552;-77
2023/03/11 03:06:15;;;;;;;3.00;0.70;;;;;7.10;100576.00;;;;5049392;28;20778;-76
2023/03/11 03:08:42;;;;;;;1.23;0.30;;;;;7.10;100571.00;;;;5051803;28;20234;-76
2023/03/11 03:11:10;;;;;;;0.65;0.30;;;;;7.10;100582.00;;;;5051344;28;20198;-76
2023/03/11 03:13:37;;;;;;;0.85;0.30;;;;;7.10;100590.00;;;;5048685;28;20576;-76
2023/03/11 03:16:05;;;;;;;0.50;0.30;;;;;7.00;100590.00;;;;5046317;28;20203;-76
2023/03/11 03:18:34;;;;;;;3.80;0.98;;;;;7.00;100599.00;;;;5049186;28;20235;-74
2023/03/11 03:21:01;;;;;;;1.38;0.40;;;;;7.00;100596.00;;;;5043618;28;20200;-75
2023/03/11 03:23:33;;;;;;;1.05;0.50;;;;;7.00;100600.00;;;;5049884;28;20215;-75
2023/03/11 03:26:01;;;;;;;0.93;0.32;;;;;6.90;100599.00;;;;5048522;28;21129;-75
2023/03/11 03:28:29;;;;;;;0.82;0.47;;;;;6.90;100606.00;;;;5038405;28;20970;-75
2023/03/11 03:30:56;;;;;;;2.50;0.45;;;;;6.90;100616.00;;;;5049103;28;20199;-74
2023/03/11 03:33:23;;;;;;;1.95;0.50;;;;;6.90;100613.00;;;;5040682;28;20195;-74
2023/03/11 03:35:52;;;;;;;1.55;0.47;;;;;6.80;100625.00;;;;5042121;28;20215;-74
2023/03/11 03:38:19;;;;;;;1.85;0.40;;;;;6.80;100617.00;;;;5048704;28;20199;-75
2023/03/11 03:40:47;;;;;;;1.50;0.45;;;;;6.80;100621.00;;;;5049222;28;20215;-75
2023/03/11 03:43:14;;;;;;;1.45;0.55;;;;;6.80;100626.00;;;;5038369;28;20204;-75
2023/03/11 03:45:41;;;;;;;2.90;0.57;;;;;6.80;100633.00;;;;5030776;28;20228;-75
2023/03/11 03:48:09;;;;;;;0.80;0.55;;;;;6.70;100636.00;;;;5046377;28;20207;-75
2023/03/11 03:50:36;;;;;;;1.88;0.47;;;;;6.70;100639.00;;;;5049487;28;20204;-76
2023/03/11 03:53:05;;;;;;;1.58;0.75;;;;;6.70;100635.00;;;;5047226;28;20203;-75
2023/03/11 03:55:32;;;;;;;1.10;0.40;;;;;6.60;100637.00;;;;5048168;28;20203;-75
2023/03/11 03:57:59;;;;;;;0.80;0.40;;;;;6.60;100642.00;;;;5049013;28;20207;-75
2023/03/11 04:00:27;;;;;;;2.50;0.45;;;;;6.60;100646.00;;;;5047691;28;20208;-75
2023/03/11 04:02:54;;;;;;;0.88;0.22;;;;;6.60;100646.00;;;;5045490;28;20577;-75
2023/03/11 04:05:25;;;;;;;1.85;0.60;;;;;6.50;100644.00;;;;5049579;28;20216;-75
2023/03/11 04:07:52;;;;;;;2.42;0.45;;;;;6.50;100654.00;;;;5046910;28;20289;-75
2023/03/11 04:10:21;;;;;;;1.23;0.40;;;;;6.50;100655.00;;;;5036867;28;20208;-75
2023/03/11 04:12:48;;;;;;;3.25;0.40;;;;;6.50;100658.00;;;;5040555;28;20199;-75
2023/03/11 04:15:16;;;;;;;1.10;0.35;;;;;6.50;100665.00;;;;5050391;28;20230;-75
2023/03/11 04:17:43;;;;;;;0.75;0.28;;;;;6.40;100660.00;;;;5050189;28;20206;-75
2023/03/11 04:20:11;;;;;;;1.80;0.45;;;;;6.40;100659.00;;;;5047671;28;20202;-75
2023/03/11 04:22:38;;;;;;;2.03;0.73;;;;;6.40;100653.00;;;;5046464;28;20207;-75
2023/03/11 04:25:07;;;;;;;0.73;0.40;;;;;6.40;100655.00;;;;5049017;28;20769;-75
2023/03/11 04:27:37;;;;;;;0.98;0.57;;;;;6.30;100660.00;;;;5049532;28;20373;-76
2023/03/11 04:30:05;;;;;;;0.75;0.55;;;;;6.30;100657.00;;;;5049569;28;20195;-75
2023/03/11 04:32:32;;;;;;;1.95;0.50;;;;;6.30;100656.00;;;;5046856;28;20587;-75
2023/03/11 04:35:00;;;;;;;3.22;0.65;;;;;6.30;100661.00;;;;5047951;28;20200;-75
2023/03/11 04:37:28;;;;;;;0.90;0.47;;;;;6.30;100657.00;;;;5049633;28;20725;-75
2023/03/11 04:39:56;;;;;;;0.90;0.70;;;;;6.30;100662.00;;;;5049536;28;20204;-75
2023/03/11 04:42:23;;;;;;;1.30;0.30;;;;;6.30;100661.00;;;;5042977;28;20203;-75
2023/03/11 04:44:52;;;;;;;2.30;0.43;;;;;6.20;100663.00;;;;5043436;28;20215;-75
2023/03/11 04:47:20;;;;;;;0.98;0.40;;;;;6.20;100667.00;;;;5044424;28;20257;-75
2023/03/11 04:49:47;;;;;;;0.70;0.38;;;;;6.20;100665.00;;;;5047482;28;20202;-75
2023/03/11 04:52:15;;;;;;;1.30;0.40;;;;;6.20;100668.00;;;;5048754;28;20196;-75
2023/03/11 04:54:42;;;;;;;1.10;0.65;;;;;6.20;100672.00;;;;5044025;28;20192;-75
2023/03/11 04:57:10;;;;;;;0.70;0.40;;;;;6.20;100681.00;;;;5048754;28;20214;-75
2023/03/11 04:59:37;;;;;;;3.15;0.65;;;;;6.20;100684.00;;;;5047512;28;20206;-75
2023/03/11 05:02:06;;;;;;;2.38;0.40;;;;;6.20;100690.00;;;;5030220;28;20209;-75
2023/03/11 05:04:34;;;;;;;1.67;0.75;;;;;6.20;100686.00;;;;5043927;28;20561;-75
2023/03/11 05:07:01;;;;;;;1.08;0.60;;;;;6.20;100680.00;;;;5046119;28;20246;-75
2023/03/11 05:09:29;;;;;;;1.13;0.32;;;;;6.10;100680.00;;;;5047054;28;20760;-74
2023/03/11 05:11:56;;;;;;;2.25;0.68;;;;;6.10;100684.00;;;;5048240;28;20196;-75
2023/03/11 05:14:23;;;;;;;0.80;0.50;;;;;6.10;100677.00;;;;5046641;28;20207;-75
2023/03/11 05:16:51;;;;;;;1.42;0.50;;;;;6.10;100684.00;;;;5046830;28;20210;-75
2023/03/11 05:19:33;;;;;;;3.55;0.75;;;;;6.00;100681.00;;;;5035116;28;20199;-75
2023/03/11 05:22:01;;;;;;;1.17;0.70;;;;;6.00;100683.00;;;;5029853;28;20294;-75
2023/03/11 05:24:29;;;;;;;1.40;0.30;;;;;6.00;100683.00;;;;5047149;28;20273;-75
2023/03/11 05:26:57;;;;;;;1.35;0.60;;;;;6.00;100682.00;;;;5047903;28;20717;-75
2023/03/11 05:29:25;;;;;;;1.17;0.55;;;;;6.00;100701.00;;;;5047416;28;20204;-75
2023/03/11 05:31:52;;;;;;;2.72;0.63;;;;;6.00;100701.00;;;;5046786;28;20415;-75
2023/03/11 05:34:22;;;;;;;1.48;0.40;;;;;5.90;100699.00;;;;5041134;28;20207;-75
2023/03/11 05:36:49;;;;;;;2.58;0.70;;;;;5.90;100692.00;;;;5045868;28;20223;-75
2023/03/11 05:39:16;;;;;;;1.38;0.30;;;;;5.90;100696.00;;;;5046452;28;20192;-75
2023/03/11 05:41:44;;;;;;;2.40;0.65;;;;;5.90;100705.00;;;;5041437;28;20195;-75
2023/03/11 05:44:11;;;;;;;1.17;0.73;;;;;5.90;100708.00;;;;5044900;28;20204;-75
2023/03/11 05:46:38;;;;;;;2.08;0.70;;;;;5.90;100716.00;;;;5035591;28;20224;-75
2023/03/11 05:49:06;;;;;;;0.82;0.45;;;;;5.80;100711.00;;;;5046450;28;20203;-75
2023/03/11 05:51:35;;;;;;;0.90;0.60;;;;;5.80;100712.00;;;;5041329;28;20204;-74
2023/03/11 05:54:02;;;;;;;1.08;0.60;;;;;5.80;100717.00;;;;5036099;28;20203;-75
2023/03/11 05:56:30;;;;;;;0.93;0.40;;;;;5.80;100714.00;;;;5048818;28;20195;-75
2023/03/11 05:58:58;;;;;;;1.65;0.57;;;;;5.80;100722.00;;;;5042544;28;20206;-75
2023/03/11 06:01:25;;;;;;;0.68;0.32;;;;;5.80;100723.00;;;;5042260;28;20206;-74
2023/03/11 06:03:52;;;;;;;1.52;0.70;;;;;5.70;100734.00;;;;5040060;28;20199;-75
2023/03/11 06:06:20;;;;;;;1.85;0.52;;;;;5.70;100731.00;;;;5037183;28;20435;-74
2023/03/11 06:08:49;;;;;;;1.30;0.70;;;;;5.70;100734.00;;;;5037667;28;20200;-75
2023/03/11 06:11:16;;;;;;;3.10;0.60;;;;;5.70;100740.00;;;;5040013;28;20195;-75
2023/03/11 06:13:44;;;;;;;2.67;0.47;;;;;5.70;100742.00;;;;5037671;28;20204;-74
2023/03/11 06:16:13;;;;;;;0.70;0.30;;;;;5.70;100747.00;;;;5048321;28;20204;-75
2023/03/11 06:18:40;;;;;;;1.52;0.52;;;;;5.70;100749.00;;;;5046319;28;20203;-74
2023/03/11 06:21:08;;;;;;;1.30;0.63;;;;;5.70;100753.00;;;;5044169;28;20188;-74
2023/03/11 06:23:35;;;;;;;1.35;0.65;;;;;5.70;100748.00;;;;5046564;28;20208;-74
2023/03/11 06:26:05;;;;;;;2.95;0.80;;;;;5.60;100755.00;;;;5048906;28;20222;-74
2023/03/11 06:28:33;;;;;;;1.45;0.57;;;;;5.70;100752.00;;;;5040970;28;20688;-74
2023/03/11 06:31:08;;;;;;;0.98;0.50;;;;;5.60;100758.00;;;;5043178;28;20231;-74
2023/03/11 06:33:35;;;;;;;1.60;0.50;;;;;5.70;100762.00;;;;5044136;28;20187;-74
2023/03/11 06:36:05;;;;;;;0.75;0.40;;;;;5.60;100760.00;;;;5037619;28;20259;-74
2023/03/11 06:38:32;;;;;;;1.42;0.80;;;;;5.70;100775.00;;;;5042873;28;20340;-74
2023/03/11 06:41:00;;;;;;;1.75;0.40;;;;;5.70;100770.00;;;;5038040;28;20183;-74
2023/03/11 06:43:30;;;;;;;3.85;0.50;;;;;5.70;100777.00;;;;5039009;28;20666;-74
2023/03/11 06:45:57;;;;;;;0.88;0.50;;;;;5.70;100774.00;;;;5043554;28;20282;-74
2023/03/11 06:48:25;;;;;;;2.65;0.75;;;;;5.70;100774.00;;;;5043081;28;20208;-74
2023/03/11 06:50:56;;;;;;;1.67;0.70;;;;;5.70;100774.00;;;;5042881;28;20200;-74
2023/03/11 06:53:24;;;;;;;0.95;0.47;;;;;5.80;100776.00;;;;5041650;28;20206;-74
2023/03/11 06:56:05;;;;;;;1.88;0.77;;;;;5.70;100778.00;;;;5043214;28;20203;-75
2023/03/11 06:58:36;;;;;;;3.50;0.65;;;;;5.80;100783.00;;;;5039826;28;20195;-74
2023/03/11 07:01:05;;;;;;;1.02;0.45;;;;;5.80;100775.00;;;;5041868;28;22244;-75
2023/03/11 07:03:32;;;;;;;2.10;0.60;;;;;5.90;100786.00;;;;5043601;28;20203;-76
2023/03/11 07:06:00;;;;;;;1.25;0.43;;;;;5.90;100800.00;;;;5038467;28;20207;-75
2023/03/11 07:08:28;;;;;;;1.48;0.60;;;;;6.00;100804.00;;;;5042482;28;20236;-77
2023/03/11 07:11:03;;;;;;;1.70;0.73;;;;;5.90;100812.00;;;;5040728;28;20204;-77
2023/03/11 07:13:32;;;;;;;1.33;0.52;;;;;6.00;100814.00;;;;5040697;28;20202;-77
2023/03/11 07:16:01;;;;;;;0.85;0.43;;;;;6.10;100805.00;;;;5039827;28;20222;-76
2023/03/11 07:18:28;;;;;;;4.32;0.90;;;;;6.10;100800.00;;;;5040364;28;20203;-77
2023/03/11 07:20:56;;;;;;;1.55;0.70;;;;;6.20;100816.00;;;;5039908;28;20204;-77
2023/03/11 07:23:23;;;;;;;3.70;1.17;;;;;6.20;100806.00;;;;5036958;28;20242;-76
2023/03/11 07:25:51;;;;;;;2.60;1.15;;;;;6.20;100805.00;;;;5043187;28;20219;-77
2023/03/11 07:28:19;;;;;;;3.85;0.77;;;;;6.30;100818.00;;;;5042166;28;20255;-76
2023/03/11 07:30:48;;;;;;;2.10;0.98;;;;;6.30;100829.00;;;;5040728;28;20596;-76
2023/03/11 07:33:16;;;;;;;1.20;0.68;;;;;6.40;100833.00;;;;5038806;28;20208;-76
2023/03/11 07:35:44;;;;;;;1.95;0.93;;;;;6.50;100829.00;;;;5041258;28;20210;-77
2023/03/11 07:38:12;;;;;;;1.35;0.85;;;;;6.50;100834.00;;;;5038032;28;20196;-77
2023/03/11 07:40:39;;;;;;;1.17;0.70;;;;;6.60;100832.00;;;;5042767;28;20223;-77
2023/03/11 07:43:06;;;;;;;3.55;1.00;;;;;6.60;100824.00;;;;5042823;28;20219;-76
2023/03/11 07:45:33;;;;;;;3.42;1.40;;;;;6.70;100838.00;;;;5039134;28;20200;-77
2023/03/11 07:48:02;;;;;;;1.98;1.33;;;;;6.70;100844.00;;;;5041368;28;20215;-77
2023/03/11 07:50:29;;;;;;;2.13;1.50;;;;;6.80;100835.00;;;;5039529;28;20219;-77
2023/03/11 07:52:57;;;;;;;2.13;1.05;;;;;6.90;100845.00;;;;5032769;28;20841;-76
2023/03/11 07:55:24;;;;;;;1.95;1.27;;;;;6.90;100853.00;;;;5039986;28;20203;-76
2023/03/11 07:57:51;;;;;;;1.50;0.95;;;;;7.00;100856.00;;;;5047245;28;20229;-77
2023/03/11 08:00:19;;;;;;;2.33;1.10;;;;;7.00;100855.00;;;;5045306;28;20204;-77
2023/03/11 08:02:47;;;;;;;1.88;1.48;;;;;7.10;100857.00;;;;5045965;28;20199;-77
2023/03/11 08:05:17;;;;;;;3.10;1.00;;;;;7.20;100859.00;;;;5045102;28;20207;-77
2023/03/11 08:07:44;;;;;;;1.73;1.08;;;;;7.20;100862.00;;;;5003647;28;1049436;-74
2023/03/11 08:10:12;;;;;;;3.58;1.30;;;;;7.30;100865.00;;;;5033565;28;20666;-74
2023/03/11 08:12:39;;;;;;;1.63;0.90;;;;;7.40;100863.00;;;;5045897;28;20203;-75
2023/03/11 08:15:08;;;;;;;1.00;0.90;;;;;7.40;100865.00;;;;5049722;28;20203;-75
2023/03/11 08:17:36;;;;;;;2.00;0.90;;;;;7.50;100872.00;;;;5049633;28;20200;-75
2023/03/11 08:20:07;;;;;;;1.45;0.82;;;;;7.60;100870.00;;;;5047936;28;20195;-75
2023/03/11 08:22:36;;;;;;;2.63;0.85;;;;;7.60;100874.00;;;;5042951;28;20203;-75
2023/03/11 08:25:03;;;;;;;1.58;0.75;;;;;7.70;100874.00;;;;5042844;28;20220;-75
2023/03/11 08:27:31;;;;;;;1.38;0.85;;;;;7.80;100876.00;;;;5039947;28;20212;-75
2023/03/11 08:29:59;;;;;;;1.30;0.90;;;;;7.90;100872.00;;;;5029588;28;20575;-75
2023/03/11 08:32:29;;;;;;;1.45;0.90;;;;;7.90;100877.00;;;;5047032;28;20192;-75
2023/03/11 08:34:57;;;;;;;2.63;0.85;;;;;8.00;100886.00;;;;5048323;28;20221;-75
2023/03/11 08:37:24;;;;;;;1.08;0.63;;;;;8.10;100886.00;;;;5049065;28;20575;-75
2023/03/11 08:39:53;;;;;;;3.08;0.80;;;;;8.20;100884.00;;;;5049548;28;20195;-75
2023/03/11 08:42:20;;;;;;;1.15;0.80;;;;;8.30;100892.00;;;;5046520;28;20215;-75
2023/03/11 08:44:48;;;;;;;4.30;1.02;;;;;8.30;100896.00;;;;5042236;28;20650;-75
2023/03/11 08:47:15;;;;;;;3.00;0.70;;;;;8.40;100896.00;;;;5048821;28;20239;-75
2023/03/11 08:49:42;;;;;;;0.90;0.55;;;;;8.50;100903.00;;;;5043531;28;20299;-75
2023/03/11 08:52:10;;;;;;;1.02;0.55;;;;;8.50;100903.00;;;;5038975;28;20689;-76
2023/03/11 08:54:37;;;;;;;1.70;0.98;;;;;8.60;100896.00;;;;5048346;28;20193;-75
2023/03/11 08:57:06;;;;;;;2.03;0.82;;;;;8.70;100899.00;;;;5061031;28;20206;-76
2023/03/11 08:59:33;;;;;;;1.42;0.80;;;;;8.70;100906.00;;;;5059277;28;20210;-75
2023/03/11 09:02:00;;;;;;;1.65;0.98;;;;;8.80;100897.00;;;;5058142;28;20194;-76
2023/03/11 09:04:27;;;;;;;1.15;0.70;;;;;8.90;100915.00;;;;5046387;28;20203;-75
2023/03/11 09:06:55;;;;;;;2.88;1.60;;;;;9.00;100921.00;;;;5046069;28;20235;-76
2023/03/11 09:09:22;;;;;;;1.50;0.73;;;;;9.10;100928.00;;;;5047018;28;20578;-76
2023/03/11 09:11:49;;;;;;;1.85;0.77;;;;;9.20;100926.00;;;;5048313;28;20204;-76
2023/03/11 09:14:18;;;;;;;2.55;1.17;;;;;9.30;100925.00;;;;5048500;28;20209;-76
2023/03/11 09:16:45;;;;;;;1.88;0.77;;;;;9.40;100926.00;;;;5045622;28;20195;-76
2023/03/11 09:19:12;;;;;;;3.72;0.80;;;;;9.50;100926.00;;;;5044119;28;20196;-76
2023/03/11 09:21:40;;;;;;;1.55;0.65;;;;;9.60;100927.00;;;;5042773;28;20216;-77
2023/03/11 09:24:08;;;;;;;1.75;0.93;;;;;9.80;100935.00;;;;5045029;28;20219;-76
2023/03/11 09:26:35;;;;;;;0.90;0.50;;;;;9.90;100935.00;;;;5037528;28;20211;-76
2023/03/11 09:29:03;;;;;;;2.03;0.75;;;;;10.00;100941.00;;;;5044988;28;20219;-75
2023/03/11 09:31:31;;;;;;;6.07;1.60;;;;;10.00;100942.00;;;;5046598;28;20199;-76
2023/03/11 09:33:59;;;;;;;1.92;0.60;;;;;10.10;100943.00;;;;5046708;28;20199;-76
2023/03/11 09:36:26;;;;;;;2.08;0.65;;;;;10.20;100929.00;;;;5047999;28;20206;-76
2023/03/11 09:38:53;;;;;;;0.68;0.30;;;;;10.30;100935.00;;;;5047084;28;20202;-76
2023/03/11 09:41:30;;;;;;;2.90;0.50;;;;;10.40;100927.00;;;;5043579;28;20209;-76
2023/03/11 09:44:10;;;;;;;2.08;0.60;;;;;10.50;100921.00;;;;5045886;28;20203;-76
2023/03/11 09:47:14;;;;;;;3.80;0.65;;;;;10.50;100925.00;;;;5045364;28;20201;-75
2023/03/11 09:49:59;;;;;;;1.00;0.60;;;;;10.60;100931.00;;;;5041717;28;20202;-76
2023/03/11 09:52:36;;;;;;;1.98;0.60;;;;;10.80;100936.00;;;;5038297;28;20206;-75
2023/03/11 09:55:05;;;;;;;1.48;0.60;;;;;10.90;100932.00;;;;5042835;28;20198;-76
2023/03/11 09:57:36;;;;;;;0.68;0.45;;;;;11.00;100933.00;;;;5041814;28;20199;-76
2023/03/11 10:00:05;;;;;;;3.33;0.50;;;;;11.10;100941.00;;;;5042532;28;20210;-76
2023/03/11 10:02:36;;;;;;;2.42;0.70;;;;;11.30;100942.00;;;;5040751;28;20569;-75
2023/03/11 10:05:10;;;;;;;2.25;0.55;;;;;11.30;100935.00;;;;5040970;28;20211;-75
2023/03/11 10:07:41;;;;;;;2.38;0.73;;;;;11.40;100950.00;;;;5037961;28;20236;-76
2023/03/11 10:10:12;;;;;;;1.35;0.50;;;;;11.50;100946.00;;;;5045643;28;20199;-75
2023/03/11 10:12:50;;;;;;;1.13;0.57;;;;;11.70;100955.00;;;;5045210;28;20210;-75
2023/03/11 10:15:24;;;;;;;1.25;0.63;;;;;11.80;100954.00;;;;5043764;28;20278;-76
2023/03/11 10:18:09;;;;;;;2.28;0.57;;;;;11.80;100961.00;;;;5047528;28;20208;-76
2023/03/11 10:20:48;;;;;;;2.58;0.50;;;;;11.90;100956.00;;;;5045813;28;20207;-76
2023/03/11 10:23:24;;;;;;;2.28;0.40;;;;;12.00;100961.00;;;;5034174;28;20203;-76
2023/03/11 10:26:00;;;;;;;0.98;0.70;;;;;12.10;100960.00;;;;5047088;28;20203;-76
2023/03/11 10:28:32;;;;;;;0.68;0.40;;;;;12.20;100970.00;;;;5048363;28;20332;-75
2023/03/11 10:31:06;;;;;;;1.50;0.85;;;;;12.30;100960.00;;;;5047149;28;20658;-76
2023/03/11 10:33:39;;;;;;;2.45;0.47;;;;;12.30;100954.00;;;;5046718;28;20206;-75
2023/03/11 10:36:14;;;;;;;1.83;0.73;;;;;12.40;100960.00;;;;5044913;28;20203;-75
2023/03/11 10:38:45;;;;;;;2.10;0.30;;;;;12.40;100958.00;;;;5042779;28;20222;-75
2023/03/11 10:41:18;;;;;;;0.68;0.20;;;;;12.50;100957.00;;;;5040808;28;20333;-75
2023/03/11 10:43:49;;;;;;;0.57;0.28;;;;;12.50;100957.00;;;;5042064;28;20286;-75
2023/03/11 10:46:20;;;;;;;1.20;0.38;;;;;12.50;100949.00;;;;5046067;28;20200;-75
2023/03/11 10:48:48;;;;;;;2.58;0.90;;;;;12.60;100964.00;;;;5041225;28;20301;-75
2023/03/11 10:51:21;;;;;;;1.60;0.75;;;;;12.60;100956.00;;;;5046910;28;20204;-75
2023/03/11 10:53:50;;;;;;;9.13;1.27;;;;;12.60;100953.00;;;;5047015;28;20203;-75
2023/03/11 10:56:30;;;;;;;2.28;0.70;;;;;12.50;100956.00;;;;5044744;28;20270;-76
2023/03/11 10:58:57;;;;;;;2.08;0.50;;;;;12.60;100952.00;;;;5039848;28;20210;-75
2023/03/11 11:01:27;;;;;;;0.52;0.15;;;;;12.60;100960.00;;;;5051757;28;20210;-75
2023/03/11 11:03:56;;;;;;;0.98;0.40;;;;;12.60;100951.00;;;;5051082;28;20278;-75
2023/03/11 11:06:28;;;;;;;0.93;0.30;;;;;12.60;100955.00;;;;5050205;28;20195;-75
2023/03/11 11:09:13;;;;;;;0.88;0.30;;;;;12.60;100960.00;;;;5047161;28;20632;-75
2023/03/11 11:11:40;;;;;;;2.03;0.50;;;;;12.70;100961.00;;;;5050675;28;20195;-74
2023/03/11 11:14:09;;;;;;;0.85;0.40;;;;;12.80;100965.00;;;;5048117;28;20207;-74
2023/03/11 11:16:37;;;;;;;1.70;0.40;;;;;12.80;100951.00;;;;5034258;28;20204;-75
2023/03/11 11:19:08;;;;;;;2.10;0.80;;;;;12.90;100973.00;;;;5044668;28;20663;-78
2023/03/11 11:21:39;;;;;;;2.03;0.30;;;;;12.90;100967.00;;;;5049689;28;20669;-74
2023/03/11 11:24:17;;;;;;;1.05;0.40;;;;;12.90;100963.00;;;;5046967;28;20265;-75
2023/03/11 11:27:04;;;;;;;2.42;0.60;;;;;12.90;100963.00;;;;5044818;28;20199;-75
2023/03/11 11:29:31;;;;;;;2.15;0.45;;;;;13.00;100970.00;;;;5050659;28;20238;-74
2023/03/11 11:32:18;;;;;;;2.47;0.40;;;;;12.90;100965.00;;;;5043956;28;20207;-74
2023/03/11 11:34:57;;;;;;;2.47;0.50;;;;;12.90;100959.00;;;;5049981;28;20196;-74
2023/03/11 11:37:30;;;;;;;1.20;0.40;;;;;13.00;100965.00;;;;5048850;28;20199;-74
2023/03/11 11:40:00;;;;;;;2.17;0.50;;;;;13.10;100969.00;;;;5048608;28;20278;-74
2023/03/11 11:42:31;;;;;;;1.15;0.32;;;;;13.10;100972.00;;;;5049224;28;20203;-79
2023/03/11 11:45:03;;;;;;;1.90;0.30;;;;;13.10;100971.00;;;;5045325;28;20192;-74
2023/03/11 11:47:34;;;;;;;0.63;0.30;;;;;13.20;100965.00;;;;5037302;28;20196;-74
2023/03/11 11:50:04;;;;;;;1.52;0.47;;;;;13.20;100967.00;;;;5045190;28;20207;-74
2023/03/11 11:52:37;;;;;;;3.30;0.40;;;;;13.20;100967.00;;;;5049120;28;20277;-74
2023/03/11 11:55:15;;;;;;;4.82;0.68;;;;;13.30;100973.00;;;;5053378;28;20192;-74
2023/03/11 11:57:44;;;;;;;2.80;0.75;;;;;13.30;100966.00;;;;5049292;28;20274;-74
2023/03/11 12:00:20;;;;;;;2.65;0.70;;;;;13.30;100973.00;;;;5044758;28;20199;-74
2023/03/11 12:03:05;;;;;;;2.17;0.65;;;;;13.20;100974.00;;;;5042611;28;20557;-74
2023/03/11 12:05:36;;;;;;;1.08;0.40;;;;;13.30;100979.00;;;;5043840;28;20200;-74
2023/03/11 12:08:13;;;;;;;1.23;0.55;;;;;13.20;100972.00;;;;5047469;28;20316;-74
2023/03/11 12:10:46;;;;;;;0.80;0.30;;;;;13.30;100972.00;;;;5049026;28;20218;-74
2023/03/11 12:13:49;;;;;;;1.15;0.30;;;;;13.20;100973.00;;;;5049231;28;20290;-74
2023/03/11 12:16:27;;;;;;;0.85;0.32;;;;;13.30;100972.00;;;;5036536;28;20196;-74
2023/03/11 12:18:59;;;;;;;2.85;0.30;;;;;13.40;100970.00;;;;5042247;28;20227;-75
2023/03/11 12:21:41;;;;;;;2.20;0.45;;;;;13.30;100966.00;;;;5047994;28;20820;-74
2023/03/11 12:24:36;;;;;;;1.02;0.17;;;;;13.30;100970.00;;;;5033213;28;20226;-74
2023/03/11 12:27:11;;;;;;;1.02;0.50;;;;;13.40;100970.00;;;;5048903;28;20212;-74
2023/03/11 12:29:44;;;;;;;0.90;0.55;;;;;13.50;100959.00;;;;5050792;28;20219;-74